Terminal Aerodrome Forecast
Issued by NWS

Home | Current Version | Previous Version | Text Only | Print | Product List | Glossary On
Versions: 1 2 3 4 5 6 7 8 9 10 11 12 13 14
000
FTUS42 TJSJ 310520
TAFISX
TAF
TISX 310520Z 3106/0106 06013KT P6SM VCTS SCT022CB BKN040
     FM311300 07015G25KT P6SM -TSRA BKN025CB BKN040
     FM311800 10024G32KT 4SM -RA BR OVC040
     FM312200 10015G22KT 4SM -RA OVC050=

USA.gov is the U.S. government's official web portal to all federal, state and local government web resources and services.